Main page
METAR-TAF:

METAR-TAF

Airports :

Jinnah International Airport

Karachi, Pakistan

latitude: 24-54N, longitude: 067-08E, elevation: 21 m

Current weather observation

The report was made 33 minutes ago, at 09:30 UTC
Wind 13 kt from the Northeast
Temperature 28°C
Humidity 19%
Pressure 1017 hPa
Visibility: 6000 m

METAR: OPKC 210930Z 04013KT 6000 NSC 28/02 Q1017 NOSIG

Time: 15:03 (10:03 UTC)

Forecast

The report was made 6 hours and 33 minutes ago, at 03:30 UTC
Forecast valid from 21 at 06 UTC to 22 at 12 UTC
Wind 10 kt from the North/Northeast with gusts up to 20 kt
Visibility: 6000 m
Becoming
from 21 at 18 UTC to 21 at 20 UTC
Wind 10 kt from the North/Northeast
Visibility: 5000 m
haze
Temporary
from 22 at 01 UTC to 22 at 05 UTC
Wind 10 kt from the North/Northeast
Visibility: 3000 m
haze

TAF: OPKC 210330Z 2106/2212 02010G20KT 6000 NSC BECMG 2118/2120 03010KT 5000 HZ NSC TEMPO 2201/2205 03010KT 3000 HZ NSC

Weather observations and forecasts of more than 4000 airports (METAR and TAF reports).

The available stations are represented by yellow and red dots on the map.

Hover mouse over dot to see the name of the station.

Then click to see weather observations and forecasts.

To change the map : click on the green buttons with a black cross to zoom in, on the green button with a dash to zoom out, or on the green arrows for adjacent maps.


METAR-TAF: